PWSweather.com
Personal Weather Stations
Station Observations
01979
Ravne Pri CerknemSI 5282

Ravne Pri CerknemSI 5282

Lat: 46.1213916, Lon: 13.952774299999987

Elevation: 2244.094488

Station Type: Techo Line WS2307

www.vremenska.postaja.andre.si/

High Low Average
Temperature 37.9°F3.3°C 28.6°F-1.9°C 32.0°F0.0°C
Dew Point 36.9°F2.7°C 27.1°F-2.7°C 30.8°F-0.7°C
Winds 7.6 mph 12.2 kmh Calm Calm 1.0 mph NNE1.6 kmh NNE
Wind Gusts 9.8 mph15.8 kmh -- 1.0 mph1.6 kmh
Humidity 100% 94% 95%
Pressure 30.12 in1020.0 mb 29.81 in1009.5 mb -
Precipitation 0.59 in15.0 mm - -
Hour Temp Dew Point Humidity Winds Wind Gusts Pressure Precip Precip Rate Daily Precip Total
12:00 AM 37.2°F2.9°C 35.9°F2.2°C 95% 0.1 mph E0.2 kmh E 1.1 mph1.8 kmh 29.86 in1011.2 mb 0.06 in1.5 mm 0.00 in0.0 mm 0.06 in1.5 mm
12:10 AM 37.2°F2.9°C 35.9°F2.2°C 95% 0.9 mph E1.4 kmh E 2.0 mph3.2 kmh 29.86 in1011.2 mb 0.06 in1.5 mm 0.00 in0.0 mm 0.02 in0.5 mm
12:20 AM 37.4°F3.0°C 36.1°F2.3°C 95% 0.2 mph ESE0.3 kmh ESE 1.6 mph2.6 kmh 29.86 in1011.2 mb 0.08 in2.0 mm 0.12 in3.0 mm 0.04 in1.0 mm
12:30 AM 37.8°F3.2°C 36.5°F2.5°C 95% Calm Calm -- 29.85 in1010.8 mb 0.06 in1.5 mm 0.00 in0.0 mm 0.04 in1.0 mm
12:40 AM 37.9°F3.3°C 36.6°F2.6°C 95% Calm Calm -- 29.85 in1010.8 mb 0.06 in1.5 mm 0.00 in0.0 mm 0.04 in1.0 mm
12:50 AM 37.9°F3.3°C 36.6°F2.6°C 95% Calm Calm -- 29.84 in1010.5 mb 0.08 in2.0 mm 0.12 in3.0 mm 0.06 in1.5 mm
01:00 AM 37.9°F3.3°C 36.6°F2.6°C 95% Calm Calm -- 29.84 in1010.5 mb 0.08 in2.0 mm 0.00 in0.0 mm 0.08 in2.0 mm
01:10 AM 37.6°F3.1°C 36.3°F2.4°C 95% Calm Calm -- 29.84 in1010.5 mb 0.06 in1.5 mm 0.00 in0.0 mm 0.08 in2.0 mm
01:20 AM 37.6°F3.1°C 36.3°F2.4°C 95% Calm Calm -- 29.84 in1010.5 mb 0.06 in1.5 mm 0.00 in0.0 mm 0.10 in2.5 mm
01:30 AM 37.6°F3.1°C 36.3°F2.4°C 95% 0.1 mph E0.2 kmh E 0.7 mph1.1 kmh 29.84 in1010.5 mb 0.06 in1.5 mm 0.00 in0.0 mm 0.10 in2.5 mm
01:40 AM 37.9°F3.3°C 36.6°F2.6°C 95% Calm Calm -- 29.84 in1010.5 mb 0.06 in1.5 mm 0.00 in0.0 mm 0.10 in2.5 mm
01:50 AM 37.8°F3.2°C 36.5°F2.5°C 95% Calm Calm 1.6 mph2.6 kmh 29.84 in1010.5 mb 0.04 in1.0 mm 0.00 in0.0 mm 0.12 in3.0 mm
02:00 AM 37.8°F3.2°C 36.5°F2.5°C 95% 0.3 mph E0.5 kmh E 1.6 mph2.6 kmh 29.83 in1010.2 mb 0.06 in1.5 mm 0.02 in0.5 mm 0.14 in3.6 mm
02:02 AM 37.8°F3.2°C 36.5°F2.5°C 95% 0.2 mph 0.3 kmh -- 29.84 in1010.5 mb 0.02 in0.5 mm 0.00 in0.0 mm 0.10 in2.5 mm
02:10 AM 37.8°F3.2°C 36.5°F2.5°C 95% Calm Calm -- 29.84 in1010.5 mb 0.06 in1.5 mm 0.30 in7.6 mm 0.14 in3.6 mm
02:20 AM 37.9°F3.3°C 36.6°F2.6°C 95% Calm Calm -- 29.84 in1010.5 mb 0.06 in1.5 mm 0.00 in0.0 mm 0.16 in4.1 mm
02:30 AM 37.9°F3.3°C 36.6°F2.6°C 95% Calm Calm -- 29.84 in1010.5 mb 0.06 in1.5 mm 0.00 in0.0 mm 0.16 in4.1 mm
02:40 AM 37.9°F3.3°C 36.9°F2.7°C 96% 0.5 mph NNW0.8 kmh NNW 2.2 mph3.5 kmh 29.84 in1010.5 mb 0.06 in1.5 mm 0.00 in0.0 mm 0.18 in4.6 mm
02:50 AM 37.8°F3.2°C 36.7°F2.6°C 96% Calm Calm -- 29.84 in1010.5 mb 0.08 in2.0 mm 0.12 in3.0 mm 0.20 in5.1 mm
03:00 AM 37.6°F3.1°C 36.5°F2.5°C 96% 1.8 mph NNW2.9 kmh NNW 7.2 mph11.6 kmh 29.83 in1010.2 mb 0.14 in3.6 mm 0.07 in1.8 mm 0.24 in6.1 mm
03:10 AM 37.2°F2.9°C 36.2°F2.3°C 96% 2.3 mph N3.7 kmh N 3.8 mph6.1 kmh 29.83 in1010.2 mb 0.12 in3.0 mm 0.00 in0.0 mm 0.27 in6.9 mm
03:20 AM 36.9°F2.7°C 35.8°F2.1°C 96% 3.3 mph N5.3 kmh N 4.9 mph7.9 kmh 29.83 in1010.2 mb 0.12 in3.0 mm 0.00 in0.0 mm 0.29 in7.4 mm
03:30 AM 36.7°F2.6°C 35.6°F2.0°C 96% 3.6 mph NNE5.8 kmh NNE 6.5 mph10.5 kmh 29.83 in1010.2 mb 0.12 in3.0 mm 0.00 in0.0 mm 0.29 in7.4 mm
03:40 AM 36.3°F2.4°C 35.3°F1.8°C 96% 4.5 mph N7.2 kmh N 8.1 mph13.0 kmh 29.83 in1010.2 mb 0.12 in3.0 mm 0.00 in0.0 mm 0.31 in7.9 mm
03:50 AM 36.1°F2.3°C 35.1°F1.7°C 96% 1.2 mph N1.9 kmh N 1.8 mph2.9 kmh 29.83 in1010.2 mb 0.14 in3.6 mm 0.12 in3.0 mm 0.35 in8.9 mm
04:00 AM 36.0°F2.2°C 34.9°F1.6°C 96% 3.4 mph NE5.5 kmh NE 4.7 mph7.6 kmh 29.83 in1010.2 mb 0.12 in3.0 mm 0.00 in0.0 mm 0.37 in9.4 mm
04:10 AM 35.8°F2.1°C 34.8°F1.6°C 96% 3.5 mph NE5.6 kmh NE 5.8 mph9.3 kmh 29.83 in1010.2 mb 0.12 in3.0 mm 0.00 in0.0 mm 0.39 in9.9 mm
04:20 AM 35.4°F1.9°C 34.4°F1.3°C 96% 3.2 mph NE5.1 kmh NE 5.6 mph9.0 kmh 29.83 in1010.2 mb 0.12 in3.0 mm 0.00 in0.0 mm 0.41 in10.4 mm
04:30 AM 35.4°F1.9°C 34.1°F1.2°C 95% 2.3 mph NE3.7 kmh NE 3.4 mph5.5 kmh 29.83 in1010.2 mb 0.14 in3.6 mm 0.12 in3.0 mm 0.43 in10.9 mm
04:40 AM 35.2°F1.8°C 34.0°F1.1°C 95% 3.5 mph NE5.6 kmh NE 4.9 mph7.9 kmh 29.82 in1009.8 mb 0.14 in3.6 mm 0.00 in0.0 mm 0.45 in11.4 mm
04:50 AM 34.7°F1.5°C 33.4°F0.8°C 95% 1.6 mph NE2.6 kmh NE 2.7 mph4.3 kmh 29.82 in1009.8 mb 0.12 in3.0 mm 0.00 in0.0 mm 0.47 in11.9 mm
05:00 AM 34.7°F1.5°C 33.4°F0.8°C 95% 3.9 mph E6.3 kmh E 6.7 mph10.8 kmh 29.82 in1009.8 mb 0.10 in2.5 mm 0.00 in0.0 mm 0.47 in11.9 mm
05:10 AM 34.5°F1.4°C 33.2°F0.7°C 95% 6.9 mph ESE11.1 kmh ESE 7.6 mph12.2 kmh 29.82 in1009.8 mb 0.08 in2.0 mm 0.00 in0.0 mm 0.47 in11.9 mm
05:20 AM 34.3°F1.3°C 33.1°F0.6°C 95% 6.2 mph ESE10.0 kmh ESE 7.6 mph12.2 kmh 29.81 in1009.5 mb 0.08 in2.0 mm 0.00 in0.0 mm 0.49 in12.4 mm
05:30 AM 34.3°F1.3°C 33.1°F0.6°C 95% 6.9 mph ESE11.1 kmh ESE 8.5 mph13.7 kmh 29.82 in1009.8 mb 0.06 in1.5 mm 0.00 in0.0 mm 0.49 in12.4 mm
05:40 AM 34.3°F1.3°C 33.1°F0.6°C 95% 4.9 mph E7.9 kmh E 9.8 mph15.8 kmh 29.83 in1010.2 mb 0.06 in1.5 mm 0.00 in0.0 mm 0.51 in13.0 mm
05:50 AM 34.3°F1.3°C 33.1°F0.6°C 95% 4.8 mph ESE7.7 kmh ESE 9.8 mph15.8 kmh 29.83 in1010.2 mb 0.06 in1.5 mm 0.00 in0.0 mm 0.53 in13.5 mm
06:00 AM 33.8°F1.0°C 32.5°F0.3°C 95% 7.6 mph E12.2 kmh E 9.8 mph15.8 kmh 29.83 in1010.2 mb 0.08 in2.0 mm 0.02 in0.5 mm 0.55 in14.0 mm
06:10 AM 33.1°F0.6°C 31.8°F-0.1°C 95% 7.3 mph E11.7 kmh E 9.4 mph15.1 kmh 29.84 in1010.5 mb 0.08 in2.0 mm 0.00 in0.0 mm 0.55 in14.0 mm
06:20 AM 32.5°F0.3°C 31.3°F-0.4°C 95% 7.1 mph ESE11.4 kmh ESE 8.9 mph14.3 kmh 29.84 in1010.5 mb 0.06 in1.5 mm 0.00 in0.0 mm 0.55 in14.0 mm
06:30 AM 32.4°F0.2°C 31.1°F-0.5°C 95% Calm Calm -- 29.84 in1010.5 mb 0.06 in1.5 mm 0.00 in0.0 mm 0.55 in14.0 mm
06:40 AM 32.2°F0.1°C 30.9°F-0.6°C 95% Calm Calm -- 29.85 in1010.8 mb 0.04 in1.0 mm 0.00 in0.0 mm 0.55 in14.0 mm
06:50 AM 31.8°F-0.1°C 30.6°F-0.8°C 95% Calm Calm -- 29.86 in1011.2 mb 0.02 in0.5 mm 0.00 in0.0 mm 0.55 in14.0 mm
07:00 AM 31.8°F-0.1°C 30.6°F-0.8°C 95% Calm Calm -- 29.86 in1011.2 mb 0.00 in0.0 mm 0.00 in0.0 mm 0.55 in14.0 mm
07:10 AM 31.8°F-0.1°C 30.6°F-0.8°C 95% Calm Calm -- 29.87 in1011.5 mb 0.00 in0.0 mm 0.00 in0.0 mm 0.55 in14.0 mm
07:20 AM 31.6°F-0.2°C 30.4°F-0.9°C 95% Calm Calm -- 29.87 in1011.5 mb 0.02 in0.5 mm 0.12 in3.0 mm 0.57 in14.5 mm
07:30 AM 31.6°F-0.2°C 30.4°F-0.9°C 95% Calm Calm -- 29.88 in1011.9 mb 0.02 in0.5 mm 0.00 in0.0 mm 0.57 in14.5 mm
07:40 AM 31.6°F-0.2°C 30.4°F-0.9°C 95% Calm Calm -- 29.88 in1011.9 mb 0.02 in0.5 mm 0.00 in0.0 mm 0.57 in14.5 mm
07:50 AM 31.3°F-0.4°C 30.0°F-1.1°C 95% Calm Calm -- 29.89 in1012.2 mb 0.02 in0.5 mm 0.00 in0.0 mm 0.57 in14.5 mm
08:00 AM 31.3°F-0.4°C 30.0°F-1.1°C 95% Calm Calm -- 29.89 in1012.2 mb 0.02 in0.5 mm 0.00 in0.0 mm 0.57 in14.5 mm
08:10 AM 31.3°F-0.4°C 30.0°F-1.1°C 95% Calm Calm -- 29.90 in1012.5 mb 0.02 in0.5 mm 0.00 in0.0 mm 0.57 in14.5 mm
08:20 AM 31.3°F-0.4°C 30.0°F-1.1°C 95% Calm Calm -- 29.90 in1012.5 mb 0.00 in0.0 mm 0.00 in0.0 mm 0.57 in14.5 mm
08:30 AM 31.3°F-0.4°C 30.0°F-1.1°C 95% Calm Calm -- 29.91 in1012.9 mb 0.00 in0.0 mm 0.00 in0.0 mm 0.57 in14.5 mm
08:40 AM 31.1°F-0.5°C 29.8°F-1.2°C 95% Calm Calm -- 29.91 in1012.9 mb 0.00 in0.0 mm 0.00 in0.0 mm 0.57 in14.5 mm
08:50 AM 31.3°F-0.4°C 30.0°F-1.1°C 95% Calm Calm -- 29.92 in1013.2 mb 0.00 in0.0 mm 0.00 in0.0 mm 0.57 in14.5 mm
09:00 AM 31.3°F-0.4°C 30.0°F-1.1°C 95% Calm Calm -- 29.93 in1013.5 mb 0.00 in0.0 mm 0.00 in0.0 mm 0.57 in14.5 mm
09:10 AM 31.3°F-0.4°C 30.0°F-1.1°C 95% Calm Calm -- 29.93 in1013.5 mb 0.00 in0.0 mm 0.00 in0.0 mm 0.57 in14.5 mm
09:20 AM 31.3°F-0.4°C 30.0°F-1.1°C 95% Calm Calm -- 29.93 in1013.5 mb 0.00 in0.0 mm 0.00 in0.0 mm 0.57 in14.5 mm
09:30 AM 31.1°F-0.5°C 30.1°F-1.1°C 96% Calm Calm -- 29.94 in1013.9 mb 0.00 in0.0 mm 0.00 in0.0 mm 0.57 in14.5 mm
09:40 AM 31.1°F-0.5°C 30.1°F-1.1°C 96% Calm Calm -- 29.94 in1013.9 mb 0.00 in0.0 mm 0.00 in0.0 mm 0.57 in14.5 mm
09:50 AM 31.1°F-0.5°C 31.1°F-0.5°C 100% Calm Calm -- 29.96 in1014.6 mb 0.00 in0.0 mm 0.00 in0.0 mm 0.57 in14.5 mm
10:00 AM 31.1°F-0.5°C 31.1°F-0.5°C 100% Calm Calm -- 29.96 in1014.6 mb 0.00 in0.0 mm 0.00 in0.0 mm 0.57 in14.5 mm
10:10 AM 31.3°F-0.4°C 30.3°F-0.9°C 96% Calm Calm -- 29.97 in1014.9 mb 0.00 in0.0 mm 0.00 in0.0 mm 0.57 in14.5 mm
10:20 AM 31.3°F-0.4°C 30.3°F-0.9°C 96% Calm Calm -- 29.98 in1015.2 mb 0.00 in0.0 mm 0.00 in0.0 mm 0.57 in14.5 mm
10:30 AM 31.3°F-0.4°C 30.3°F-0.9°C 96% Calm Calm -- 29.98 in1015.2 mb 0.00 in0.0 mm 0.00 in0.0 mm 0.57 in14.5 mm
10:40 AM 31.3°F-0.4°C 30.3°F-0.9°C 96% Calm Calm -- 29.99 in1015.6 mb 0.00 in0.0 mm 0.00 in0.0 mm 0.57 in14.5 mm
10:50 AM 31.3°F-0.4°C 30.3°F-0.9°C 96% Calm Calm -- 29.99 in1015.6 mb 0.00 in0.0 mm 0.00 in0.0 mm 0.57 in14.5 mm
11:00 AM 31.3°F-0.4°C 30.3°F-0.9°C 96% Calm Calm -- 29.99 in1015.6 mb 0.00 in0.0 mm 0.00 in0.0 mm 0.57 in14.5 mm
11:10 AM 31.3°F-0.4°C 30.3°F-0.9°C 96% Calm Calm -- 29.99 in1015.6 mb 0.00 in0.0 mm 0.00 in0.0 mm 0.57 in14.5 mm
11:20 AM 31.3°F-0.4°C 30.3°F-0.9°C 96% Calm Calm -- 30.00 in1015.9 mb 0.00 in0.0 mm 0.00 in0.0 mm 0.57 in14.5 mm
11:30 AM 31.3°F-0.4°C 30.3°F-0.9°C 96% Calm Calm -- 30.01 in1016.3 mb 0.00 in0.0 mm 0.00 in0.0 mm 0.57 in14.5 mm
11:40 AM 31.3°F-0.4°C 30.3°F-0.9°C 96% Calm Calm -- 30.00 in1015.9 mb 0.00 in0.0 mm 0.00 in0.0 mm 0.57 in14.5 mm
11:50 AM 31.1°F-0.5°C 30.1°F-1.1°C 96% Calm Calm -- 30.00 in1015.9 mb 0.00 in0.0 mm 0.00 in0.0 mm 0.57 in14.5 mm
12:00 PM 31.1°F-0.5°C 30.1°F-1.1°C 96% Calm Calm -- 30.01 in1016.3 mb 0.00 in0.0 mm 0.00 in0.0 mm 0.57 in14.5 mm
12:10 PM 31.1°F-0.5°C 30.1°F-1.1°C 96% Calm Calm -- 30.01 in1016.3 mb 0.00 in0.0 mm 0.00 in0.0 mm 0.57 in14.5 mm
12:20 PM 31.3°F-0.4°C 30.3°F-0.9°C 96% Calm Calm -- 30.01 in1016.3 mb 0.00 in0.0 mm 0.00 in0.0 mm 0.57 in14.5 mm
12:30 PM 31.3°F-0.4°C 30.3°F-0.9°C 96% Calm Calm -- 30.01 in1016.3 mb 0.00 in0.0 mm 0.00 in0.0 mm 0.57 in14.5 mm
12:40 PM 31.1°F-0.5°C 30.1°F-1.1°C 96% Calm Calm -- 30.01 in1016.3 mb 0.00 in0.0 mm 0.00 in0.0 mm 0.57 in14.5 mm
12:50 PM 31.1°F-0.5°C 30.1°F-1.1°C 96% Calm Calm -- 30.02 in1016.6 mb 0.00 in0.0 mm 0.00 in0.0 mm 0.57 in14.5 mm
01:00 PM 31.1°F-0.5°C 30.1°F-1.1°C 96% Calm Calm -- 30.02 in1016.6 mb 0.00 in0.0 mm 0.00 in0.0 mm 0.57 in14.5 mm
01:10 PM 31.1°F-0.5°C 30.1°F-1.1°C 96% Calm Calm -- 30.02 in1016.6 mb 0.00 in0.0 mm 0.00 in0.0 mm 0.57 in14.5 mm
01:20 PM 31.3°F-0.4°C 30.3°F-0.9°C 96% Calm Calm -- 30.02 in1016.6 mb 0.00 in0.0 mm 0.00 in0.0 mm 0.57 in14.5 mm
01:30 PM 31.1°F-0.5°C 30.1°F-1.1°C 96% Calm Calm -- 30.02 in1016.6 mb 0.00 in0.0 mm 0.00 in0.0 mm 0.57 in14.5 mm
01:40 PM 31.1°F-0.5°C 30.1°F-1.1°C 96% Calm Calm -- 30.02 in1016.6 mb 0.00 in0.0 mm 0.00 in0.0 mm 0.57 in14.5 mm
01:50 PM 31.1°F-0.5°C 30.1°F-1.1°C 96% Calm Calm -- 30.02 in1016.6 mb 0.00 in0.0 mm 0.00 in0.0 mm 0.57 in14.5 mm
02:00 PM 30.9°F-0.6°C 29.9°F-1.2°C 96% Calm Calm -- 30.02 in1016.6 mb 0.00 in0.0 mm 0.00 in0.0 mm 0.57 in14.5 mm
02:10 PM 31.1°F-0.5°C 30.1°F-1.1°C 96% Calm Calm -- 30.03 in1016.9 mb 0.00 in0.0 mm 0.00 in0.0 mm 0.57 in14.5 mm
02:20 PM 30.9°F-0.6°C 29.9°F-1.2°C 96% Calm Calm -- 30.03 in1016.9 mb 0.00 in0.0 mm 0.00 in0.0 mm 0.57 in14.5 mm
02:30 PM 30.9°F-0.6°C 29.9°F-1.2°C 96% Calm Calm -- 30.03 in1016.9 mb 0.00 in0.0 mm 0.00 in0.0 mm 0.57 in14.5 mm
02:40 PM 30.9°F-0.6°C 29.9°F-1.2°C 96% Calm Calm -- 30.04 in1017.3 mb 0.00 in0.0 mm 0.00 in0.0 mm 0.57 in14.5 mm
02:50 PM 30.9°F-0.6°C 29.9°F-1.2°C 96% Calm Calm -- 30.03 in1016.9 mb 0.00 in0.0 mm 0.00 in0.0 mm 0.57 in14.5 mm
03:00 PM 30.9°F-0.6°C 29.9°F-1.2°C 96% Calm Calm -- 30.03 in1016.9 mb 0.00 in0.0 mm 0.00 in0.0 mm 0.57 in14.5 mm
03:10 PM 30.9°F-0.6°C 29.9°F-1.2°C 96% Calm Calm -- 30.04 in1017.3 mb 0.00 in0.0 mm 0.00 in0.0 mm 0.57 in14.5 mm
03:20 PM 30.6°F-0.8°C 30.6°F-0.8°C 100% Calm Calm -- 30.04 in1017.3 mb 0.00 in0.0 mm 0.00 in0.0 mm 0.57 in14.5 mm
03:30 PM 30.6°F-0.8°C 29.6°F-1.3°C 96% Calm Calm -- 30.04 in1017.3 mb 0.02 in0.5 mm 0.12 in3.0 mm 0.59 in15.0 mm
03:40 PM 30.6°F-0.8°C 30.6°F-0.8°C 100% Calm Calm -- 30.04 in1017.3 mb 0.02 in0.5 mm 0.00 in0.0 mm 0.59 in15.0 mm
03:50 PM 30.6°F-0.8°C 29.6°F-1.3°C 96% Calm Calm -- 30.04 in1017.3 mb 0.02 in0.5 mm 0.00 in0.0 mm 0.59 in15.0 mm
04:00 PM 30.4°F-0.9°C 29.4°F-1.4°C 96% Calm Calm -- 30.05 in1017.6 mb 0.02 in0.5 mm 0.00 in0.0 mm 0.59 in15.0 mm
04:10 PM 30.4°F-0.9°C 30.4°F-0.9°C 100% Calm Calm -- 30.05 in1017.6 mb 0.02 in0.5 mm 0.00 in0.0 mm 0.59 in15.0 mm
04:20 PM 30.2°F-1.0°C 29.2°F-1.6°C 96% Calm Calm -- 30.05 in1017.6 mb 0.02 in0.5 mm 0.00 in0.0 mm 0.59 in15.0 mm
04:30 PM 30.0°F-1.1°C 29.0°F-1.7°C 96% Calm Calm -- 30.06 in1017.9 mb 0.00 in0.0 mm 0.00 in0.0 mm 0.59 in15.0 mm
04:40 PM 30.0°F-1.1°C 30.0°F-1.1°C 100% Calm Calm -- 30.06 in1017.9 mb 0.00 in0.0 mm 0.00 in0.0 mm 0.59 in15.0 mm
04:50 PM 30.2°F-1.0°C 29.2°F-1.6°C 96% Calm Calm -- 30.07 in1018.3 mb 0.00 in0.0 mm 0.00 in0.0 mm 0.59 in15.0 mm
05:00 PM 30.0°F-1.1°C 29.0°F-1.7°C 96% Calm Calm -- 30.07 in1018.3 mb 0.00 in0.0 mm 0.00 in0.0 mm 0.59 in15.0 mm
05:10 PM 30.0°F-1.1°C 29.0°F-1.7°C 96% Calm Calm -- 30.08 in1018.6 mb 0.00 in0.0 mm 0.00 in0.0 mm 0.59 in15.0 mm
05:20 PM 29.8°F-1.2°C 28.8°F-1.8°C 96% Calm Calm -- 30.08 in1018.6 mb 0.00 in0.0 mm 0.00 in0.0 mm 0.59 in15.0 mm
05:30 PM 29.7°F-1.3°C 28.4°F-2.0°C 95% Calm Calm -- 30.07 in1018.3 mb 0.00 in0.0 mm 0.00 in0.0 mm 0.59 in15.0 mm
05:40 PM 29.5°F-1.4°C 28.2°F-2.1°C 95% Calm Calm -- 30.07 in1018.3 mb 0.00 in0.0 mm 0.00 in0.0 mm 0.59 in15.0 mm
05:50 PM 29.5°F-1.4°C 28.2°F-2.1°C 95% Calm Calm -- 30.07 in1018.3 mb 0.00 in0.0 mm 0.00 in0.0 mm 0.59 in15.0 mm
06:00 PM 29.3°F-1.5°C 28.0°F-2.2°C 95% Calm Calm -- 30.08 in1018.6 mb 0.00 in0.0 mm 0.00 in0.0 mm 0.59 in15.0 mm
06:10 PM 29.3°F-1.5°C 28.0°F-2.2°C 95% Calm Calm -- 30.08 in1018.6 mb 0.00 in0.0 mm 0.00 in0.0 mm 0.59 in15.0 mm
06:20 PM 29.1°F-1.6°C 27.9°F-2.3°C 95% Calm Calm -- 30.08 in1018.6 mb 0.00 in0.0 mm 0.00 in0.0 mm 0.59 in15.0 mm
06:30 PM 29.1°F-1.6°C 27.9°F-2.3°C 95% Calm Calm -- 30.09 in1019.0 mb 0.00 in0.0 mm 0.00 in0.0 mm 0.59 in15.0 mm
06:40 PM 29.1°F-1.6°C 27.9°F-2.3°C 95% Calm Calm -- 30.09 in1019.0 mb 0.00 in0.0 mm 0.00 in0.0 mm 0.59 in15.0 mm
06:50 PM 28.9°F-1.7°C 27.7°F-2.4°C 95% Calm Calm -- 30.09 in1019.0 mb 0.00 in0.0 mm 0.00 in0.0 mm 0.59 in15.0 mm
07:00 PM 28.8°F-1.8°C 27.5°F-2.5°C 95% Calm Calm -- 30.09 in1019.0 mb 0.00 in0.0 mm 0.00 in0.0 mm 0.59 in15.0 mm
07:10 PM 28.9°F-1.7°C 27.7°F-2.4°C 95% Calm Calm -- 30.09 in1019.0 mb 0.00 in0.0 mm 0.00 in0.0 mm 0.59 in15.0 mm
07:20 PM 29.1°F-1.6°C 27.9°F-2.3°C 95% Calm Calm -- 30.09 in1019.0 mb 0.00 in0.0 mm 0.00 in0.0 mm 0.59 in15.0 mm
07:30 PM 29.1°F-1.6°C 27.9°F-2.3°C 95% Calm Calm -- 30.09 in1019.0 mb 0.00 in0.0 mm 0.00 in0.0 mm 0.59 in15.0 mm
07:40 PM 29.1°F-1.6°C 27.9°F-2.3°C 95% Calm Calm -- 30.09 in1019.0 mb 0.00 in0.0 mm 0.00 in0.0 mm 0.59 in15.0 mm
07:50 PM 29.1°F-1.6°C 27.9°F-2.3°C 95% Calm Calm -- 30.10 in1019.3 mb 0.00 in0.0 mm 0.00 in0.0 mm 0.59 in15.0 mm
08:00 PM 29.1°F-1.6°C 27.9°F-2.3°C 95% Calm Calm -- 30.09 in1019.0 mb 0.00 in0.0 mm 0.00 in0.0 mm 0.59 in15.0 mm
08:10 PM 29.1°F-1.6°C 27.9°F-2.3°C 95% Calm Calm -- 30.09 in1019.0 mb 0.00 in0.0 mm 0.00 in0.0 mm 0.59 in15.0 mm
08:20 PM 29.1°F-1.6°C 27.9°F-2.3°C 95% Calm Calm -- 30.10 in1019.3 mb 0.00 in0.0 mm 0.00 in0.0 mm 0.59 in15.0 mm
08:30 PM 29.1°F-1.6°C 27.9°F-2.3°C 95% Calm Calm -- 30.09 in1019.0 mb 0.00 in0.0 mm 0.00 in0.0 mm 0.59 in15.0 mm
08:40 PM 29.1°F-1.6°C 27.9°F-2.3°C 95% Calm Calm -- 30.10 in1019.3 mb 0.00 in0.0 mm 0.00 in0.0 mm 0.59 in15.0 mm
08:50 PM 29.1°F-1.6°C 27.9°F-2.3°C 95% Calm Calm -- 30.10 in1019.3 mb 0.00 in0.0 mm 0.00 in0.0 mm 0.59 in15.0 mm
09:00 PM 29.1°F-1.6°C 27.6°F-2.4°C 94% Calm Calm -- 30.11 in1019.6 mb 0.00 in0.0 mm 0.00 in0.0 mm 0.59 in15.0 mm
09:10 PM 29.1°F-1.6°C 27.6°F-2.4°C 94% Calm Calm -- 30.11 in1019.6 mb 0.00 in0.0 mm 0.00 in0.0 mm 0.59 in15.0 mm
09:20 PM 29.1°F-1.6°C 27.6°F-2.4°C 94% Calm Calm -- 30.11 in1019.6 mb 0.00 in0.0 mm 0.00 in0.0 mm 0.59 in15.0 mm
09:30 PM 29.1°F-1.6°C 27.6°F-2.4°C 94% Calm Calm -- 30.11 in1019.6 mb 0.00 in0.0 mm 0.00 in0.0 mm 0.59 in15.0 mm
09:40 PM 28.9°F-1.7°C 27.4°F-2.6°C 94% Calm Calm -- 30.11 in1019.6 mb 0.00 in0.0 mm 0.00 in0.0 mm 0.59 in15.0 mm
09:50 PM 28.9°F-1.7°C 27.4°F-2.6°C 94% Calm Calm -- 30.11 in1019.6 mb 0.00 in0.0 mm 0.00 in0.0 mm 0.59 in15.0 mm
10:00 PM 28.9°F-1.7°C 27.4°F-2.6°C 94% Calm Calm -- 30.11 in1019.6 mb 0.00 in0.0 mm 0.00 in0.0 mm 0.59 in15.0 mm
10:10 PM 28.9°F-1.7°C 27.4°F-2.6°C 94% Calm Calm -- 30.11 in1019.6 mb 0.00 in0.0 mm 0.00 in0.0 mm 0.59 in15.0 mm
10:20 PM 28.9°F-1.7°C 27.4°F-2.6°C 94% Calm Calm -- 30.11 in1019.6 mb 0.00 in0.0 mm 0.00 in0.0 mm 0.59 in15.0 mm
10:30 PM 28.9°F-1.7°C 27.4°F-2.6°C 94% Calm Calm -- 30.11 in1019.6 mb 0.00 in0.0 mm 0.00 in0.0 mm 0.59 in15.0 mm
10:40 PM 28.8°F-1.8°C 27.3°F-2.6°C 94% Calm Calm -- 30.11 in1019.6 mb 0.00 in0.0 mm 0.00 in0.0 mm 0.59 in15.0 mm
10:50 PM 28.8°F-1.8°C 27.3°F-2.6°C 94% Calm Calm -- 30.11 in1019.6 mb 0.00 in0.0 mm 0.00 in0.0 mm 0.59 in15.0 mm
11:00 PM 28.8°F-1.8°C 27.3°F-2.6°C 94% Calm Calm -- 30.11 in1019.6 mb 0.00 in0.0 mm 0.00 in0.0 mm 0.59 in15.0 mm
11:10 PM 28.8°F-1.8°C 27.3°F-2.6°C 94% Calm Calm -- 30.12 in1020.0 mb 0.00 in0.0 mm 0.00 in0.0 mm 0.59 in15.0 mm
11:20 PM 28.8°F-1.8°C 27.3°F-2.6°C 94% Calm Calm -- 30.12 in1020.0 mb 0.00 in0.0 mm 0.00 in0.0 mm 0.59 in15.0 mm
11:30 PM 28.8°F-1.8°C 27.3°F-2.6°C 94% Calm Calm -- 30.11 in1019.6 mb 0.00 in0.0 mm 0.00 in0.0 mm 0.59 in15.0 mm
11:40 PM 28.6°F-1.9°C 27.1°F-2.7°C 94% Calm Calm -- 30.11 in1019.6 mb 0.00 in0.0 mm 0.00 in0.0 mm 0.59 in15.0 mm
11:50 PM 28.6°F-1.9°C 27.1°F-2.7°C 94% Calm Calm -- 30.12 in1020.0 mb 0.00 in0.0 mm 0.00 in0.0 mm 0.59 in15.0 mm